sensor_id;sensor_type;location;lat;lon;timestamp;temperature;humidity
74081;SHT31;62438;52.228;6.864;2022-07-29T00:00:15;16.63;60.73
74081;SHT31;62438;52.228;6.864;2022-07-29T00:02:16;16.67;60.67
74081;SHT31;62438;52.228;6.864;2022-07-29T00:04:16;16.63;60.80
74081;SHT31;62438;52.228;6.864;2022-07-29T00:06:17;16.65;60.62
74081;SHT31;62438;52.228;6.864;2022-07-29T00:08:17;16.57;61.96
74081;SHT31;62438;52.228;6.864;2022-07-29T00:10:17;16.58;60.78
74081;SHT31;62438;52.228;6.864;2022-07-29T00:12:21;16.53;61.27
74081;SHT31;62438;52.228;6.864;2022-07-29T00:14:21;16.53;61.45
74081;SHT31;62438;52.228;6.864;2022-07-29T00:16:22;16.53;61.39
74081;SHT31;62438;52.228;6.864;2022-07-29T00:18:23;16.51;61.60
74081;SHT31;62438;52.228;6.864;2022-07-29T00:20:23;16.47;61.19
74081;SHT31;62438;52.228;6.864;2022-07-29T00:22:27;16.48;61.18
74081;SHT31;62438;52.228;6.864;2022-07-29T00:24:27;16.51;60.53
74081;SHT31;62438;52.228;6.864;2022-07-29T00:26:28;16.48;61.17
74081;SHT31;62438;52.228;6.864;2022-07-29T00:28:31;16.43;61.33
74081;SHT31;62438;52.228;6.864;2022-07-29T00:30:32;16.41;61.55
74081;SHT31;62438;52.228;6.864;2022-07-29T00:32:32;16.35;61.45
74081;SHT31;62438;52.228;6.864;2022-07-29T00:34:33;16.34;61.91
74081;SHT31;62438;52.228;6.864;2022-07-29T00:36:51;16.41;61.51
74081;SHT31;62438;52.228;6.864;2022-07-29T00:38:53;16.35;61.93
74081;SHT31;62438;52.228;6.864;2022-07-29T00:40:53;16.26;62.51
74081;SHT31;62438;52.228;6.864;2022-07-29T00:42:53;16.14;62.50
74081;SHT31;62438;52.228;6.864;2022-07-29T00:44:54;16.18;61.98
74081;SHT31;62438;52.228;6.864;2022-07-29T00:46:54;16.23;62.19
74081;SHT31;62438;52.228;6.864;2022-07-29T00:48:55;16.17;62.44
74081;SHT31;62438;52.228;6.864;2022-07-29T00:50:57;16.14;62.86
74081;SHT31;62438;52.228;6.864;2022-07-29T00:52:58;16.16;62.48
74081;SHT31;62438;52.228;6.864;2022-07-29T00:54:58;16.12;62.63
74081;SHT31;62438;52.228;6.864;2022-07-29T00:56:59;16.06;62.33
74081;SHT31;62438;52.228;6.864;2022-07-29T00:59:00;16.05;62.89
74081;SHT31;62438;52.228;6.864;2022-07-29T01:01:01;16.02;63.32
74081;SHT31;62438;52.228;6.864;2022-07-29T01:03:01;16.02;63.06
74081;SHT31;62438;52.228;6.864;2022-07-29T01:05:04;15.95;63.04
74081;SHT31;62438;52.228;6.864;2022-07-29T01:07:05;16.07;62.97
74081;SHT31;62438;52.228;6.864;2022-07-29T01:09:06;15.93;62.95
74081;SHT31;62438;52.228;6.864;2022-07-29T01:11:07;15.90;62.78
74081;SHT31;62438;52.228;6.864;2022-07-29T01:13:09;15.92;63.10
74081;SHT31;62438;52.228;6.864;2022-07-29T01:15:10;15.99;62.73
74081;SHT31;62438;52.228;6.864;2022-07-29T01:17:21;15.99;63.03
74081;SHT31;62438;52.228;6.864;2022-07-29T01:21:51;15.93;63.09
74081;SHT31;62438;52.228;6.864;2022-07-29T01:26:49;15.83;63.25
74081;SHT31;62438;52.228;6.864;2022-07-29T01:28:59;15.81;63.61
74081;SHT31;62438;52.228;6.864;2022-07-29T01:31:02;15.78;63.33
74081;SHT31;62438;52.228;6.864;2022-07-29T01:33:08;15.72;63.71
74081;SHT31;62438;52.228;6.864;2022-07-29T01:37:26;15.73;63.61
74081;SHT31;62438;52.228;6.864;2022-07-29T01:39:34;15.85;63.23
74081;SHT31;62438;52.228;6.864;2022-07-29T01:41:38;15.68;63.45
74081;SHT31;62438;52.228;6.864;2022-07-29T01:43:53;15.63;63.84
74081;SHT31;62438;52.228;6.864;2022-07-29T01:46:01;15.61;63.29
74081;SHT31;62438;52.228;6.864;2022-07-29T01:48:18;15.61;63.92
74081;SHT31;62438;52.228;6.864;2022-07-29T01:50:23;15.61;63.43
74081;SHT31;62438;52.228;6.864;2022-07-29T01:52:52;15.62;64.11
74081;SHT31;62438;52.228;6.864;2022-07-29T01:54:58;15.62;64.11
74081;SHT31;62438;52.228;6.864;2022-07-29T01:57:03;15.63;63.25
74081;SHT31;62438;52.228;6.864;2022-07-29T01:59:06;15.62;63.42
74081;SHT31;62438;52.228;6.864;2022-07-29T02:01:09;15.61;63.79
74081;SHT31;62438;52.228;6.864;2022-07-29T02:03:11;15.49;64.05
74081;SHT31;62438;52.228;6.864;2022-07-29T02:05:15;15.41;64.98
74081;SHT31;62438;52.228;6.864;2022-07-29T02:07:19;15.44;64.24
74081;SHT31;62438;52.228;6.864;2022-07-29T02:09:21;15.54;63.92
74081;SHT31;62438;52.228;6.864;2022-07-29T02:11:22;15.48;64.18
74081;SHT31;62438;52.228;6.864;2022-07-29T02:13:23;15.37;64.66
74081;SHT31;62438;52.228;6.864;2022-07-29T02:15:27;15.41;64.40
74081;SHT31;62438;52.228;6.864;2022-07-29T02:17:43;15.44;64.85
74081;SHT31;62438;52.228;6.864;2022-07-29T02:19:47;15.32;64.91
74081;SHT31;62438;52.228;6.864;2022-07-29T02:21:49;15.28;64.48
74081;SHT31;62438;52.228;6.864;2022-07-29T02:23:52;15.27;64.68
74081;SHT31;62438;52.228;6.864;2022-07-29T02:25:55;15.24;65.47
74081;SHT31;62438;52.228;6.864;2022-07-29T02:27:57;15.20;65.77
74081;SHT31;62438;52.228;6.864;2022-07-29T02:30:00;15.20;66.35
74081;SHT31;62438;52.228;6.864;2022-07-29T02:32:03;15.34;64.73
74081;SHT31;62438;52.228;6.864;2022-07-29T02:34:06;15.35;64.63
74081;SHT31;62438;52.228;6.864;2022-07-29T02:36:08;15.24;65.25
74081;SHT31;62438;52.228;6.864;2022-07-29T02:38:13;15.21;65.22
74081;SHT31;62438;52.228;6.864;2022-07-29T02:40:34;15.17;65.88
74081;SHT31;62438;52.228;6.864;2022-07-29T02:42:36;15.07;66.15
74081;SHT31;62438;52.228;6.864;2022-07-29T02:44:37;15.04;66.06
74081;SHT31;62438;52.228;6.864;2022-07-29T02:46:43;15.07;66.02
74081;SHT31;62438;52.228;6.864;2022-07-29T02:48:51;15.10;66.35
74081;SHT31;62438;52.228;6.864;2022-07-29T02:51:01;15.17;65.80
74081;SHT31;62438;52.228;6.864;2022-07-29T02:53:09;15.10;66.27
74081;SHT31;62438;52.228;6.864;2022-07-29T02:55:25;15.07;65.64
74081;SHT31;62438;52.228;6.864;2022-07-29T02:57:33;15.14;66.11
74081;SHT31;62438;52.228;6.864;2022-07-29T02:59:36;15.00;66.14
74081;SHT31;62438;52.228;6.864;2022-07-29T03:01:40;15.01;66.51
74081;SHT31;62438;52.228;6.864;2022-07-29T03:03:43;14.98;66.53
74081;SHT31;62438;52.228;6.864;2022-07-29T03:05:45;14.98;66.57
74081;SHT31;62438;52.228;6.864;2022-07-29T03:07:49;14.90;67.09
74081;SHT31;62438;52.228;6.864;2022-07-29T03:09:51;14.96;67.01
74081;SHT31;62438;52.228;6.864;2022-07-29T03:11:53;14.87;67.36
74081;SHT31;62438;52.228;6.864;2022-07-29T03:13:55;14.91;67.01
74081;SHT31;62438;52.228;6.864;2022-07-29T03:15:56;14.86;67.01
74081;SHT31;62438;52.228;6.864;2022-07-29T03:17:58;14.84;67.38
74081;SHT31;62438;52.228;6.864;2022-07-29T03:19:59;14.76;67.21
74081;SHT31;62438;52.228;6.864;2022-07-29T03:22:00;14.76;67.87
74081;SHT31;62438;52.228;6.864;2022-07-29T03:24:00;14.73;68.31
74081;SHT31;62438;52.228;6.864;2022-07-29T03:26:01;14.81;67.52
74081;SHT31;62438;52.228;6.864;2022-07-29T03:28:01;14.86;67.20
74081;SHT31;62438;52.228;6.864;2022-07-29T03:30:02;14.80;67.68
74081;SHT31;62438;52.228;6.864;2022-07-29T03:32:06;14.80;67.57
74081;SHT31;62438;52.228;6.864;2022-07-29T03:34:06;14.86;67.16
74081;SHT31;62438;52.228;6.864;2022-07-29T03:36:07;14.81;68.03
74081;SHT31;62438;52.228;6.864;2022-07-29T03:38:07;14.73;67.48
74081;SHT31;62438;52.228;6.864;2022-07-29T03:40:10;14.77;67.77
74081;SHT31;62438;52.228;6.864;2022-07-29T03:42:13;14.84;67.62
74081;SHT31;62438;52.228;6.864;2022-07-29T03:44:16;14.72;67.51
74081;SHT31;62438;52.228;6.864;2022-07-29T03:46:20;14.80;67.78
74081;SHT31;62438;52.228;6.864;2022-07-29T03:48:23;14.75;67.73
74081;SHT31;62438;52.228;6.864;2022-07-29T03:50:25;14.69;67.44
74081;SHT31;62438;52.228;6.864;2022-07-29T03:52:26;14.75;67.67
74081;SHT31;62438;52.228;6.864;2022-07-29T03:54:26;14.68;68.11
74081;SHT31;62438;52.228;6.864;2022-07-29T03:56:27;14.66;67.92
74081;SHT31;62438;52.228;6.864;2022-07-29T03:58:30;14.70;67.66
74081;SHT31;62438;52.228;6.864;2022-07-29T04:00:32;14.69;68.38
74081;SHT31;62438;52.228;6.864;2022-07-29T04:02:33;14.69;68.21
74081;SHT31;62438;52.228;6.864;2022-07-29T04:04:35;14.79;68.43
74081;SHT31;62438;52.228;6.864;2022-07-29T04:06:41;14.77;68.00
74081;SHT31;62438;52.228;6.864;2022-07-29T04:08:41;14.80;67.55
74081;SHT31;62438;52.228;6.864;2022-07-29T04:10:42;14.86;67.63
74081;SHT31;62438;52.228;6.864;2022-07-29T04:12:43;14.87;67.19
74081;SHT31;62438;52.228;6.864;2022-07-29T04:14:43;14.86;67.91
74081;SHT31;62438;52.228;6.864;2022-07-29T04:16:43;14.80;67.97
74081;SHT31;62438;52.228;6.864;2022-07-29T04:18:44;14.77;68.13
74081;SHT31;62438;52.228;6.864;2022-07-29T04:20:44;14.89;67.79
74081;SHT31;62438;52.228;6.864;2022-07-29T04:22:45;14.84;68.32
74081;SHT31;62438;52.228;6.864;2022-07-29T04:24:46;14.89;67.65
74081;SHT31;62438;52.228;6.864;2022-07-29T04:26:46;14.87;67.85
74081;SHT31;62438;52.228;6.864;2022-07-29T04:28:47;14.80;67.80
74081;SHT31;62438;52.228;6.864;2022-07-29T04:30:47;14.91;66.46
74081;SHT31;62438;52.228;6.864;2022-07-29T04:32:48;14.87;67.75
74081;SHT31;62438;52.228;6.864;2022-07-29T04:34:48;14.87;67.52
74081;SHT31;62438;52.228;6.864;2022-07-29T04:36:49;14.89;68.12
74081;SHT31;62438;52.228;6.864;2022-07-29T04:38:49;14.83;68.07
74081;SHT31;62438;52.228;6.864;2022-07-29T04:40:49;14.90;68.64
74081;SHT31;62438;52.228;6.864;2022-07-29T04:42:50;14.86;67.82
74081;SHT31;62438;52.228;6.864;2022-07-29T04:44:50;14.84;69.19
74081;SHT31;62438;52.228;6.864;2022-07-29T04:46:51;14.84;68.39
74081;SHT31;62438;52.228;6.864;2022-07-29T04:48:51;14.94;67.73
74081;SHT31;62438;52.228;6.864;2022-07-29T04:50:52;14.89;69.22
74081;SHT31;62438;52.228;6.864;2022-07-29T04:52:52;14.86;67.97
74081;SHT31;62438;52.228;6.864;2022-07-29T04:54:53;14.93;68.33
74081;SHT31;62438;52.228;6.864;2022-07-29T04:56:53;14.90;67.64
74081;SHT31;62438;52.228;6.864;2022-07-29T04:58:53;14.93;68.27
74081;SHT31;62438;52.228;6.864;2022-07-29T05:00:54;14.96;68.06
74081;SHT31;62438;52.228;6.864;2022-07-29T05:02:54;14.97;68.27
74081;SHT31;62438;52.228;6.864;2022-07-29T05:04:55;15.01;68.36
74081;SHT31;62438;52.228;6.864;2022-07-29T05:06:55;15.03;68.47
74081;SHT31;62438;52.228;6.864;2022-07-29T05:08:56;14.98;69.06
74081;SHT31;62438;52.228;6.864;2022-07-29T05:10:56;15.01;68.23
74081;SHT31;62438;52.228;6.864;2022-07-29T05:12:56;15.10;68.93
74081;SHT31;62438;52.228;6.864;2022-07-29T05:14:57;15.03;68.29
74081;SHT31;62438;52.228;6.864;2022-07-29T05:16:58;15.01;68.30
74081;SHT31;62438;52.228;6.864;2022-07-29T05:18:59;15.04;69.27
74081;SHT31;62438;52.228;6.864;2022-07-29T05:20:59;15.03;68.92
74081;SHT31;62438;52.228;6.864;2022-07-29T05:23:02;15.00;69.15
74081;SHT31;62438;52.228;6.864;2022-07-29T05:25:03;14.98;68.53
74081;SHT31;62438;52.228;6.864;2022-07-29T05:27:04;15.08;69.12
74081;SHT31;62438;52.228;6.864;2022-07-29T05:29:04;15.20;69.05
74081;SHT31;62438;52.228;6.864;2022-07-29T05:31:05;15.17;69.00
74081;SHT31;62438;52.228;6.864;2022-07-29T05:33:05;15.14;68.80
74081;SHT31;62438;52.228;6.864;2022-07-29T05:35:06;15.12;68.24
74081;SHT31;62438;52.228;6.864;2022-07-29T05:37:06;15.12;68.05
74081;SHT31;62438;52.228;6.864;2022-07-29T05:39:07;15.18;68.66
74081;SHT31;62438;52.228;6.864;2022-07-29T05:41:07;15.24;68.69
74081;SHT31;62438;52.228;6.864;2022-07-29T05:43:08;15.24;68.89
74081;SHT31;62438;52.228;6.864;2022-07-29T05:45:08;15.26;69.78
74081;SHT31;62438;52.228;6.864;2022-07-29T05:47:09;15.37;68.55
74081;SHT31;62438;52.228;6.864;2022-07-29T05:49:09;15.45;67.41
74081;SHT31;62438;52.228;6.864;2022-07-29T05:51:10;15.35;67.53
74081;SHT31;62438;52.228;6.864;2022-07-29T05:53:10;15.34;68.12
74081;SHT31;62438;52.228;6.864;2022-07-29T05:55:10;15.35;69.10
74081;SHT31;62438;52.228;6.864;2022-07-29T05:57:22;15.39;69.53
74081;SHT31;62438;52.228;6.864;2022-07-29T05:59:23;15.45;67.98
74081;SHT31;62438;52.228;6.864;2022-07-29T06:01:23;15.39;67.75
74081;SHT31;62438;52.228;6.864;2022-07-29T06:03:25;15.41;65.81
74081;SHT31;62438;52.228;6.864;2022-07-29T06:05:25;15.44;66.27
74081;SHT31;62438;52.228;6.864;2022-07-29T06:07:25;15.39;65.78
74081;SHT31;62438;52.228;6.864;2022-07-29T06:09:26;15.41;66.65
74081;SHT31;62438;52.228;6.864;2022-07-29T06:11:27;15.48;67.54
74081;SHT31;62438;52.228;6.864;2022-07-29T06:13:27;15.42;67.46
74081;SHT31;62438;52.228;6.864;2022-07-29T06:15:28;15.52;67.60
74081;SHT31;62438;52.228;6.864;2022-07-29T06:17:28;15.52;67.35
74081;SHT31;62438;52.228;6.864;2022-07-29T06:19:28;15.47;67.82
74081;SHT31;62438;52.228;6.864;2022-07-29T06:21:29;15.42;67.37
74081;SHT31;62438;52.228;6.864;2022-07-29T06:23:30;15.47;67.64
74081;SHT31;62438;52.228;6.864;2022-07-29T06:25:31;15.45;68.01
74081;SHT31;62438;52.228;6.864;2022-07-29T06:27:34;15.48;68.73
74081;SHT31;62438;52.228;6.864;2022-07-29T06:29:35;15.54;68.42
74081;SHT31;62438;52.228;6.864;2022-07-29T06:31:36;15.47;67.85
74081;SHT31;62438;52.228;6.864;2022-07-29T06:33:36;15.44;69.24
74081;SHT31;62438;52.228;6.864;2022-07-29T06:35:36;15.45;68.55
74081;SHT31;62438;52.228;6.864;2022-07-29T06:37:39;15.44;68.94
74081;SHT31;62438;52.228;6.864;2022-07-29T06:39:39;15.51;68.54
74081;SHT31;62438;52.228;6.864;2022-07-29T06:41:39;15.37;68.77
74081;SHT31;62438;52.228;6.864;2022-07-29T06:43:40;15.34;69.99
74081;SHT31;62438;52.228;6.864;2022-07-29T06:45:44;15.34;70.50
74081;SHT31;62438;52.228;6.864;2022-07-29T06:47:44;15.41;70.70
74081;SHT31;62438;52.228;6.864;2022-07-29T06:49:45;15.49;69.59
74081;SHT31;62438;52.228;6.864;2022-07-29T06:51:45;15.55;69.80
74081;SHT31;62438;52.228;6.864;2022-07-29T06:53:46;15.62;70.83
74081;SHT31;62438;52.228;6.864;2022-07-29T06:55:47;15.55;71.48
74081;SHT31;62438;52.228;6.864;2022-07-29T06:57:47;15.47;71.72
74081;SHT31;62438;52.228;6.864;2022-07-29T06:59:48;15.55;72.83
74081;SHT31;62438;52.228;6.864;2022-07-29T07:01:48;15.51;72.77
74081;SHT31;62438;52.228;6.864;2022-07-29T07:03:48;15.44;73.11
74081;SHT31;62438;52.228;6.864;2022-07-29T07:05:49;15.37;73.70
74081;SHT31;62438;52.228;6.864;2022-07-29T07:07:49;15.32;75.62
74081;SHT31;62438;52.228;6.864;2022-07-29T07:09:50;15.24;76.36
74081;SHT31;62438;52.228;6.864;2022-07-29T07:11:50;15.27;75.57
74081;SHT31;62438;52.228;6.864;2022-07-29T07:13:50;15.28;74.44
74081;SHT31;62438;52.228;6.864;2022-07-29T07:15:51;15.28;74.63
74081;SHT31;62438;52.228;6.864;2022-07-29T07:17:52;15.24;74.94
74081;SHT31;62438;52.228;6.864;2022-07-29T07:19:52;15.21;75.27
74081;SHT31;62438;52.228;6.864;2022-07-29T07:21:53;15.37;73.76
74081;SHT31;62438;52.228;6.864;2022-07-29T07:23:53;15.44;74.93
74081;SHT31;62438;52.228;6.864;2022-07-29T07:25:54;15.38;74.05
74081;SHT31;62438;52.228;6.864;2022-07-29T07:27:54;15.48;74.79
74081;SHT31;62438;52.228;6.864;2022-07-29T07:29:55;15.47;75.27
74081;SHT31;62438;52.228;6.864;2022-07-29T07:31:55;15.55;74.94
74081;SHT31;62438;52.228;6.864;2022-07-29T07:33:57;15.62;74.56
74081;SHT31;62438;52.228;6.864;2022-07-29T07:35:58;15.72;73.66
74081;SHT31;62438;52.228;6.864;2022-07-29T07:37:58;15.66;74.77
74081;SHT31;62438;52.228;6.864;2022-07-29T07:39:59;15.79;72.89
74081;SHT31;62438;52.228;6.864;2022-07-29T07:41:59;15.70;74.03
74081;SHT31;62438;52.228;6.864;2022-07-29T07:44:00;15.65;75.31
74081;SHT31;62438;52.228;6.864;2022-07-29T07:46:00;15.61;76.28
74081;SHT31;62438;52.228;6.864;2022-07-29T07:48:01;15.72;78.22
74081;SHT31;62438;52.228;6.864;2022-07-29T07:50:03;15.70;73.33
74081;SHT31;62438;52.228;6.864;2022-07-29T07:52:03;15.78;74.51
74081;SHT31;62438;52.228;6.864;2022-07-29T07:54:04;15.61;75.48
74081;SHT31;62438;52.228;6.864;2022-07-29T07:56:05;15.51;74.30
74081;SHT31;62438;52.228;6.864;2022-07-29T07:58:06;15.62;74.69
74081;SHT31;62438;52.228;6.864;2022-07-29T08:00:07;15.63;74.38
74081;SHT31;62438;52.228;6.864;2022-07-29T08:02:08;15.73;75.71
74081;SHT31;62438;52.228;6.864;2022-07-29T08:04:09;15.68;77.44
74081;SHT31;62438;52.228;6.864;2022-07-29T08:06:09;15.75;77.52
74081;SHT31;62438;52.228;6.864;2022-07-29T08:08:10;15.82;77.16
74081;SHT31;62438;52.228;6.864;2022-07-29T08:10:10;15.86;76.32
74081;SHT31;62438;52.228;6.864;2022-07-29T08:12:11;15.83;76.70
74081;SHT31;62438;52.228;6.864;2022-07-29T08:14:11;15.78;77.27
74081;SHT31;62438;52.228;6.864;2022-07-29T08:16:12;15.70;77.25
74081;SHT31;62438;52.228;6.864;2022-07-29T08:18:13;15.72;76.86
74081;SHT31;62438;52.228;6.864;2022-07-29T08:20:13;15.75;77.70
74081;SHT31;62438;52.228;6.864;2022-07-29T08:22:14;15.72;76.64
74081;SHT31;62438;52.228;6.864;2022-07-29T08:24:14;15.79;77.01
74081;SHT31;62438;52.228;6.864;2022-07-29T08:26:33;15.73;76.61
74081;SHT31;62438;52.228;6.864;2022-07-29T08:28:34;15.72;76.72
74081;SHT31;62438;52.228;6.864;2022-07-29T08:30:34;15.68;77.05
74081;SHT31;62438;52.228;6.864;2022-07-29T08:32:35;15.73;77.44
74081;SHT31;62438;52.228;6.864;2022-07-29T08:34:35;15.69;78.42
74081;SHT31;62438;52.228;6.864;2022-07-29T08:36:35;15.73;79.27
74081;SHT31;62438;52.228;6.864;2022-07-29T08:38:36;15.81;78.68
74081;SHT31;62438;52.228;6.864;2022-07-29T08:40:37;15.83;77.90
74081;SHT31;62438;52.228;6.864;2022-07-29T08:42:37;15.89;78.29
74081;SHT31;62438;52.228;6.864;2022-07-29T08:44:38;15.89;78.15
74081;SHT31;62438;52.228;6.864;2022-07-29T08:46:38;15.97;79.16
74081;SHT31;62438;52.228;6.864;2022-07-29T08:48:41;16.02;76.68
74081;SHT31;62438;52.228;6.864;2022-07-29T08:50:42;16.05;77.53
74081;SHT31;62438;52.228;6.864;2022-07-29T08:52:43;16.00;76.40
74081;SHT31;62438;52.228;6.864;2022-07-29T08:54:44;16.02;77.56
74081;SHT31;62438;52.228;6.864;2022-07-29T08:56:48;15.99;78.73
74081;SHT31;62438;52.228;6.864;2022-07-29T08:58:50;15.99;79.91
74081;SHT31;62438;52.228;6.864;2022-07-29T09:00:55;16.05;79.49
74081;SHT31;62438;52.228;6.864;2022-07-29T09:02:57;16.10;78.21
74081;SHT31;62438;52.228;6.864;2022-07-29T09:05:00;16.07;79.03
74081;SHT31;62438;52.228;6.864;2022-07-29T09:07:04;16.13;78.53
74081;SHT31;62438;52.228;6.864;2022-07-29T09:09:07;16.27;78.15
74081;SHT31;62438;52.228;6.864;2022-07-29T09:11:07;16.26;77.23
74081;SHT31;62438;52.228;6.864;2022-07-29T09:13:08;16.20;75.67
74081;SHT31;62438;52.228;6.864;2022-07-29T09:15:09;16.26;75.86
74081;SHT31;62438;52.228;6.864;2022-07-29T09:17:09;16.24;74.79
74081;SHT31;62438;52.228;6.864;2022-07-29T09:19:31;16.31;76.29
74081;SHT31;62438;52.228;6.864;2022-07-29T09:21:40;16.31;75.76
74081;SHT31;62438;52.228;6.864;2022-07-29T09:24:11;16.28;77.11
74081;SHT31;62438;52.228;6.864;2022-07-29T09:26:12;16.23;78.12
74081;SHT31;62438;52.228;6.864;2022-07-29T09:28:14;16.23;76.83
74081;SHT31;62438;52.228;6.864;2022-07-29T09:30:16;16.21;77.43
74081;SHT31;62438;52.228;6.864;2022-07-29T09:32:17;16.21;78.48
74081;SHT31;62438;52.228;6.864;2022-07-29T09:34:24;16.18;78.85
74081;SHT31;62438;52.228;6.864;2022-07-29T09:36:25;16.18;78.68
74081;SHT31;62438;52.228;6.864;2022-07-29T09:38:25;16.13;79.40
74081;SHT31;62438;52.228;6.864;2022-07-29T09:40:27;16.20;80.63
74081;SHT31;62438;52.228;6.864;2022-07-29T09:42:28;16.10;79.80
74081;SHT31;62438;52.228;6.864;2022-07-29T09:44:48;16.10;79.14
74081;SHT31;62438;52.228;6.864;2022-07-29T09:46:56;16.09;79.26
74081;SHT31;62438;52.228;6.864;2022-07-29T09:49:18;16.00;79.87
74081;SHT31;62438;52.228;6.864;2022-07-29T09:51:19;16.03;80.30
74081;SHT31;62438;52.228;6.864;2022-07-29T09:53:36;15.97;80.29
74081;SHT31;62438;52.228;6.864;2022-07-29T09:57:48;15.97;79.95
74081;SHT31;62438;52.228;6.864;2022-07-29T10:00:06;15.87;80.71
74081;SHT31;62438;52.228;6.864;2022-07-29T10:02:12;15.90;80.63
74081;SHT31;62438;52.228;6.864;2022-07-29T10:04:13;15.97;81.00
74081;SHT31;62438;52.228;6.864;2022-07-29T10:06:13;15.97;81.21
74081;SHT31;62438;52.228;6.864;2022-07-29T10:08:24;15.99;81.15
74081;SHT31;62438;52.228;6.864;2022-07-29T10:10:27;15.97;82.70
74081;SHT31;62438;52.228;6.864;2022-07-29T10:12:28;15.90;81.74
74081;SHT31;62438;52.228;6.864;2022-07-29T10:14:31;15.76;81.67
74081;SHT31;62438;52.228;6.864;2022-07-29T10:16:32;15.72;81.39
74081;SHT31;62438;52.228;6.864;2022-07-29T10:18:33;15.78;85.21
74081;SHT31;62438;52.228;6.864;2022-07-29T10:20:34;15.85;85.52
74081;SHT31;62438;52.228;6.864;2022-07-29T10:22:36;15.95;85.46
74081;SHT31;62438;52.228;6.864;2022-07-29T10:24:37;15.89;86.18
74081;SHT31;62438;52.228;6.864;2022-07-29T10:26:38;15.95;86.40
74081;SHT31;62438;52.228;6.864;2022-07-29T10:28:41;16.09;85.13
74081;SHT31;62438;52.228;6.864;2022-07-29T10:30:41;16.05;85.27
74081;SHT31;62438;52.228;6.864;2022-07-29T10:40:13;16.20;86.37
74081;SHT31;62438;52.228;6.864;2022-07-29T10:42:39;16.21;85.52
74081;SHT31;62438;52.228;6.864;2022-07-29T10:44:41;16.09;85.96
74081;SHT31;62438;52.228;6.864;2022-07-29T10:46:42;16.05;86.88
74081;SHT31;62438;52.228;6.864;2022-07-29T10:51:09;15.96;87.19
74081;SHT31;62438;52.228;6.864;2022-07-29T10:53:09;15.97;88.00
74081;SHT31;62438;52.228;6.864;2022-07-29T10:57:33;15.93;87.76
74081;SHT31;62438;52.228;6.864;2022-07-29T10:59:37;15.90;88.34
74081;SHT31;62438;52.228;6.864;2022-07-29T11:01:38;15.96;87.87
74081;SHT31;62438;52.228;6.864;2022-07-29T11:03:47;15.79;88.54
74081;SHT31;62438;52.228;6.864;2022-07-29T11:05:55;15.87;89.01
74081;SHT31;62438;52.228;6.864;2022-07-29T11:17:05;16.26;87.54
74081;SHT31;62438;52.228;6.864;2022-07-29T11:21:34;16.51;87.26
74081;SHT31;62438;52.228;6.864;2022-07-29T11:23:35;16.54;87.29
74081;SHT31;62438;52.228;6.864;2022-07-29T11:25:37;16.64;87.58
74081;SHT31;62438;52.228;6.864;2022-07-29T11:27:37;16.58;85.98
74081;SHT31;62438;52.228;6.864;2022-07-29T11:29:47;16.65;85.86
74081;SHT31;62438;52.228;6.864;2022-07-29T11:31:50;16.51;87.00
74081;SHT31;62438;52.228;6.864;2022-07-29T11:33:54;16.58;85.93
74081;SHT31;62438;52.228;6.864;2022-07-29T11:36:24;16.72;86.68
74081;SHT31;62438;52.228;6.864;2022-07-29T11:38:26;16.72;85.21
74081;SHT31;62438;52.228;6.864;2022-07-29T11:40:29;16.76;85.58
74081;SHT31;62438;52.228;6.864;2022-07-29T11:45:05;16.89;85.45
74081;SHT31;62438;52.228;6.864;2022-07-29T11:47:07;17.06;83.33
74081;SHT31;62438;52.228;6.864;2022-07-29T11:49:10;17.03;82.54
74081;SHT31;62438;52.228;6.864;2022-07-29T11:51:11;17.19;85.02
74081;SHT31;62438;52.228;6.864;2022-07-29T11:53:13;17.30;84.53
74081;SHT31;62438;52.228;6.864;2022-07-29T11:55:18;17.32;84.50
74081;SHT31;62438;52.228;6.864;2022-07-29T11:57:20;17.57;83.11
74081;SHT31;62438;52.228;6.864;2022-07-29T11:59:21;17.66;82.73
74081;SHT31;62438;52.228;6.864;2022-07-29T12:01:21;17.60;80.23
74081;SHT31;62438;52.228;6.864;2022-07-29T12:03:27;17.74;82.51
74081;SHT31;62438;52.228;6.864;2022-07-29T12:05:37;17.88;83.15
74081;SHT31;62438;52.228;6.864;2022-07-29T12:07:39;17.99;82.75
74081;SHT31;62438;52.228;6.864;2022-07-29T12:09:39;18.08;79.41
74081;SHT31;62438;52.228;6.864;2022-07-29T12:11:40;18.05;79.80
74081;SHT31;62438;52.228;6.864;2022-07-29T12:13:40;18.18;79.50
74081;SHT31;62438;52.228;6.864;2022-07-29T12:15:41;18.33;80.63
74081;SHT31;62438;52.228;6.864;2022-07-29T12:17:43;18.29;80.50
74081;SHT31;62438;52.228;6.864;2022-07-29T12:19:44;18.38;78.74
74081;SHT31;62438;52.228;6.864;2022-07-29T12:21:46;18.45;77.78
74081;SHT31;62438;52.228;6.864;2022-07-29T12:23:54;18.55;78.19
74081;SHT31;62438;52.228;6.864;2022-07-29T12:25:55;18.86;76.55
74081;SHT31;62438;52.228;6.864;2022-07-29T12:27:59;18.91;76.86
74081;SHT31;62438;52.228;6.864;2022-07-29T12:30:05;19.31;78.03
74081;SHT31;62438;52.228;6.864;2022-07-29T12:32:06;19.75;74.56
74081;SHT31;62438;52.228;6.864;2022-07-29T12:34:07;20.01;73.84
74081;SHT31;62438;52.228;6.864;2022-07-29T12:36:07;20.95;73.79
74081;SHT31;62438;52.228;6.864;2022-07-29T12:38:10;21.74;70.19
74081;SHT31;62438;52.228;6.864;2022-07-29T12:40:13;21.73;67.38
74081;SHT31;62438;52.228;6.864;2022-07-29T12:42:15;21.36;67.89
74081;SHT31;62438;52.228;6.864;2022-07-29T12:44:16;21.33;68.10
74081;SHT31;62438;52.228;6.864;2022-07-29T12:46:16;21.61;68.29
74081;SHT31;62438;52.228;6.864;2022-07-29T12:48:18;21.60;67.11
74081;SHT31;62438;52.228;6.864;2022-07-29T12:50:32;21.92;67.11
74081;SHT31;62438;52.228;6.864;2022-07-29T12:52:34;22.23;62.56
74081;SHT31;62438;52.228;6.864;2022-07-29T12:54:46;22.15;62.57
74081;SHT31;62438;52.228;6.864;2022-07-29T12:56:58;21.60;59.25
74081;SHT31;62438;52.228;6.864;2022-07-29T12:58:59;21.53;65.27
74081;SHT31;62438;52.228;6.864;2022-07-29T13:03:04;21.41;65.75
74081;SHT31;62438;52.228;6.864;2022-07-29T13:05:06;21.46;69.57
74081;SHT31;62438;52.228;6.864;2022-07-29T13:07:08;21.14;63.30
74081;SHT31;62438;52.228;6.864;2022-07-29T13:11:27;21.40;61.54
74081;SHT31;62438;52.228;6.864;2022-07-29T13:13:28;21.68;64.86
74081;SHT31;62438;52.228;6.864;2022-07-29T13:15:29;21.60;65.93
74081;SHT31;62438;52.228;6.864;2022-07-29T13:17:39;21.65;64.59
74081;SHT31;62438;52.228;6.864;2022-07-29T13:21:47;21.61;62.64
74081;SHT31;62438;52.228;6.864;2022-07-29T13:23:48;21.62;61.51
74081;SHT31;62438;52.228;6.864;2022-07-29T13:25:48;21.65;60.09
74081;SHT31;62438;52.228;6.864;2022-07-29T13:27:49;21.77;59.74
74081;SHT31;62438;52.228;6.864;2022-07-29T13:29:50;22.01;59.96
74081;SHT31;62438;52.228;6.864;2022-07-29T13:31:52;22.01;65.01
74081;SHT31;62438;52.228;6.864;2022-07-29T13:33:53;22.09;60.63
74081;SHT31;62438;52.228;6.864;2022-07-29T13:35:53;22.22;61.79